Time;durP1;ratioP1;P1;durP2;ratioP2;P2;SDS_P1;SDS_P2;PMS_P1;PMS_P2;Temp;Humidity;BMP_temperature;BMP_pressure;BME280_temperature;BME280_humidity;BME280_pressure;Samples;Min_cycle;Max_cycle;Signal;HPM_P1;HPM_P2
2022/07/18 00:01:57;;;;;;;;;;;20.10;72.80;;;;;;4986810;28;20675;-63
2022/07/18 00:04:25;;;;;;;;;;;20.10;72.50;;;;;;4988663;28;20196;-64
2022/07/18 00:06:53;;;;;;;;;;;20.10;72.70;;;;;;4988966;28;20237;-65
2022/07/18 00:09:22;;;;;;;;;;;20.00;73.60;;;;;;4987284;28;20337;-63
2022/07/18 00:11:50;;;;;;;;;;;20.00;73.00;;;;;;4988903;28;20075;-64
2022/07/18 00:14:18;;;;;;;;;;;19.90;73.10;;;;;;4988743;28;20227;-64
2022/07/18 00:16:47;;;;;;;;;;;19.80;73.50;;;;;;4983334;28;20234;-63
2022/07/18 00:19:15;;;;;;;;;;;19.80;73.90;;;;;;4992089;28;20233;-64
2022/07/18 00:21:43;;;;;;;;;;;19.70;74.40;;;;;;4974180;28;20149;-64
2022/07/18 00:24:10;;;;;;;;;;;19.70;73.70;;;;;;4991259;28;20921;-65
2022/07/18 00:26:38;;;;;;;;;;;19.80;74.50;;;;;;4984536;28;20575;-64
2022/07/18 00:29:06;;;;;;;;;;;19.90;73.70;;;;;;4992479;28;20238;-64
2022/07/18 00:31:34;;;;;;;;;;;19.90;74.70;;;;;;4993312;28;20690;-64
2022/07/18 00:34:03;;;;;;;;;;;19.80;74.20;;;;;;4989901;28;20217;-64
2022/07/18 00:36:32;;;;;;;;;;;19.70;74.20;;;;;;4990525;28;20132;-64
2022/07/18 00:39:00;;;;;;;;;;;19.70;74.60;;;;;;4993279;28;20248;-64
2022/07/18 00:41:28;;;;;;;;;;;19.70;74.00;;;;;;4988493;28;20292;-64
2022/07/18 00:43:57;;;;;;;;;;;19.70;73.80;;;;;;4991721;28;20772;-63
2022/07/18 00:46:25;;;;;;;;;;;19.70;73.90;;;;;;4987088;28;20803;-64
2022/07/18 00:48:53;;;;;;;;;;;19.60;74.00;;;;;;4990491;28;20197;-64
2022/07/18 00:51:22;;;;;;;;;;;19.70;74.00;;;;;;4992237;28;20247;-64
2022/07/18 00:53:50;;;;;;;;;;;19.70;74.20;;;;;;4991893;28;20281;-63
2022/07/18 00:56:19;;;;;;;;;;;19.70;73.70;;;;;;4991430;28;20082;-64
2022/07/18 00:58:47;;;;;;;;;;;19.70;73.90;;;;;;4988230;28;20075;-64
2022/07/18 01:04:00;;;;;;;;;;;19.70;73.70;;;;;;4989990;28;20244;-63
2022/07/18 01:06:29;;;;;;;;;;;19.70;73.70;;;;;;4992278;28;20123;-64
2022/07/18 01:08:57;;;;;;;;;;;19.70;74.20;;;;;;4991516;28;20721;-64
2022/07/18 01:11:25;;;;;;;;;;;19.70;73.40;;;;;;4988249;28;20345;-64
2022/07/18 01:13:54;;;;;;;;;;;19.70;72.80;;;;;;4989166;28;25059;-64
2022/07/18 01:16:22;;;;;;;;;;;19.70;73.60;;;;;;4986096;28;20285;-63
2022/07/18 01:18:50;;;;;;;;;;;19.60;73.00;;;;;;4988204;28;20123;-65
2022/07/18 01:21:20;;;;;;;;;;;19.70;72.80;;;;;;4991585;28;25205;-64
2022/07/18 01:23:47;;;;;;;;;;;19.70;73.30;;;;;;4988270;28;20170;-65
2022/07/18 01:26:16;;;;;;;;;;;19.70;73.00;;;;;;4985788;28;20109;-65
2022/07/18 01:28:44;;;;;;;;;;;19.60;73.00;;;;;;4989521;28;20227;-65
2022/07/18 01:31:13;;;;;;;;;;;19.60;73.30;;;;;;4987730;28;20261;-64
2022/07/18 01:33:41;;;;;;;;;;;19.60;73.00;;;;;;4987597;28;20745;-65
2022/07/18 01:36:09;;;;;;;;;;;19.60;73.10;;;;;;4989507;28;20224;-65
2022/07/18 01:38:38;;;;;;;;;;;19.60;73.80;;;;;;4990878;28;20713;-65
2022/07/18 01:41:06;;;;;;;;;;;19.70;73.90;;;;;;4986601;28;20782;-65
2022/07/18 01:43:37;;;;;;;;;;;19.70;73.40;;;;;;4992237;28;25083;-65
2022/07/18 01:46:05;;;;;;;;;;;19.60;73.60;;;;;;4993765;28;20080;-65
2022/07/18 01:48:34;;;;;;;;;;;19.60;73.30;;;;;;4986954;28;20230;-65
2022/07/18 01:51:02;;;;;;;;;;;19.60;73.30;;;;;;4991497;28;20091;-65
2022/07/18 01:53:30;;;;;;;;;;;19.50;73.80;;;;;;4985631;28;20793;-63
2022/07/18 01:55:59;;;;;;;;;;;19.50;73.50;;;;;;4989863;28;20786;-65
2022/07/18 01:58:26;;;;;;;;;;;19.50;75.10;;;;;;4989286;28;20967;-65
2022/07/18 02:00:54;;;;;;;;;;;19.50;74.20;;;;;;4990724;28;25091;-65
2022/07/18 02:03:22;;;;;;;;;;;19.40;74.00;;;;;;4987324;28;20227;-65
2022/07/18 02:05:50;;;;;;;;;;;19.50;74.70;;;;;;4989007;28;22211;-65
2022/07/18 02:08:17;;;;;;;;;;;19.40;75.30;;;;;;4987326;28;20144;-65
2022/07/18 02:10:45;;;;;;;;;;;19.40;75.20;;;;;;4984741;28;20798;-64
2022/07/18 02:13:16;;;;;;;;;;;19.40;73.90;;;;;;4987675;28;20127;-65
2022/07/18 02:15:44;;;;;;;;;;;19.30;74.00;;;;;;4989264;28;20231;-65
2022/07/18 02:18:12;;;;;;;;;;;19.40;75.10;;;;;;4989317;28;20213;-64
2022/07/18 02:20:40;;;;;;;;;;;19.30;74.30;;;;;;4991692;28;20716;-65
2022/07/18 02:23:08;;;;;;;;;;;19.30;74.30;;;;;;4993089;28;20092;-65
2022/07/18 02:25:37;;;;;;;;;;;19.30;75.40;;;;;;4993064;28;20258;-66
2022/07/18 02:28:04;;;;;;;;;;;19.20;73.90;;;;;;4991541;28;20199;-65
2022/07/18 02:30:34;;;;;;;;;;;19.20;74.90;;;;;;4990371;28;20217;-65
2022/07/18 02:33:01;;;;;;;;;;;19.20;75.00;;;;;;4988900;28;20901;-64
2022/07/18 02:35:30;;;;;;;;;;;19.20;75.70;;;;;;4986670;28;20696;-63
2022/07/18 02:37:58;;;;;;;;;;;19.10;74.50;;;;;;4988657;28;20948;-64
2022/07/18 02:40:26;;;;;;;;;;;19.20;76.00;;;;;;4983514;28;25067;-63
2022/07/18 02:42:54;;;;;;;;;;;19.10;74.80;;;;;;4989153;28;20124;-64
2022/07/18 02:45:21;;;;;;;;;;;19.10;74.60;;;;;;4988502;28;25069;-64
2022/07/18 02:47:51;;;;;;;;;;;19.10;74.70;;;;;;4987705;28;20824;-64
2022/07/18 02:50:18;;;;;;;;;;;19.00;75.50;;;;;;4989368;28;20709;-64
2022/07/18 02:52:46;;;;;;;;;;;19.00;75.60;;;;;;4988323;28;20276;-64
2022/07/18 02:55:15;;;;;;;;;;;18.90;75.30;;;;;;4985396;28;20742;-64
2022/07/18 02:57:43;;;;;;;;;;;18.90;76.50;;;;;;5009214;23;20822;-70
2022/07/18 03:00:12;;;;;;;;;;;18.90;75.70;;;;;;4992460;28;20805;-68
2022/07/18 03:02:41;;;;;;;;;;;18.90;76.40;;;;;;4995694;28;20257;-70
2022/07/18 03:05:11;;;;;;;;;;;18.90;75.70;;;;;;4993531;28;20118;-71
2022/07/18 03:07:39;;;;;;;;;;;18.80;76.70;;;;;;4992622;28;20207;-70
2022/07/18 03:10:07;;;;;;;;;;;18.80;75.40;;;;;;4994112;28;20121;-71
2022/07/18 03:12:35;;;;;;;;;;;18.70;76.30;;;;;;4991437;28;20247;-68
2022/07/18 03:15:03;;;;;;;;;;;18.60;77.00;;;;;;4991944;28;20236;-69
2022/07/18 03:17:31;;;;;;;;;;;18.60;76.80;;;;;;4992891;28;20278;-72
2022/07/18 03:19:59;;;;;;;;;;;18.60;76.90;;;;;;4991808;28;20269;-71
2022/07/18 03:22:28;;;;;;;;;;;18.50;76.50;;;;;;4990145;28;20247;-72
2022/07/18 03:24:56;;;;;;;;;;;18.50;76.20;;;;;;4990819;28;20271;-67
2022/07/18 03:27:24;;;;;;;;;;;18.50;77.60;;;;;;5000658;28;20241;-71
2022/07/18 03:29:52;;;;;;;;;;;18.50;76.80;;;;;;4990807;28;20237;-70
2022/07/18 03:32:19;;;;;;;;;;;18.40;76.20;;;;;;4995454;28;20701;-68
2022/07/18 03:34:47;;;;;;;;;;;18.40;77.40;;;;;;4989965;28;20213;-70
2022/07/18 03:37:15;;;;;;;;;;;18.40;77.10;;;;;;4990724;28;20239;-69
2022/07/18 03:39:44;;;;;;;;;;;18.30;77.00;;;;;;4994304;28;20254;-70
2022/07/18 03:42:12;;;;;;;;;;;18.30;77.40;;;;;;4995559;28;20238;-71
2022/07/18 03:44:39;;;;;;;;;;;18.20;77.50;;;;;;4996968;28;21558;-68
2022/07/18 03:47:07;;;;;;;;;;;18.20;78.80;;;;;;4998194;28;20221;-71
2022/07/18 03:49:35;;;;;;;;;;;18.30;78.70;;;;;;5000890;28;20203;-69
2022/07/18 03:52:03;;;;;;;;;;;18.30;77.60;;;;;;4991697;28;20209;-70
2022/07/18 03:54:31;;;;;;;;;;;18.30;77.80;;;;;;4994413;28;20136;-68
2022/07/18 03:57:00;;;;;;;;;;;18.30;77.90;;;;;;5001272;28;20224;-70
2022/07/18 03:59:28;;;;;;;;;;;18.30;76.90;;;;;;4996148;28;20209;-69
2022/07/18 04:01:55;;;;;;;;;;;18.20;78.40;;;;;;4997110;28;20148;-68
2022/07/18 04:04:23;;;;;;;;;;;18.30;79.40;;;;;;5006080;28;20194;-69
2022/07/18 04:06:51;;;;;;;;;;;18.30;79.70;;;;;;4993672;28;21970;-71
2022/07/18 04:09:19;;;;;;;;;;;18.30;78.00;;;;;;5006638;28;20227;-69
2022/07/18 04:11:46;;;;;;;;;;;18.30;77.90;;;;;;5007714;28;20261;-67
2022/07/18 04:14:15;;;;;;;;;;;18.30;79.30;;;;;;4995852;28;20209;-67
2022/07/18 04:16:43;;;;;;;;;;;18.20;79.60;;;;;;4997725;28;20190;-66
2022/07/18 04:19:11;;;;;;;;;;;18.20;78.70;;;;;;4996083;28;20214;-67
2022/07/18 04:21:39;;;;;;;;;;;18.20;78.30;;;;;;4998210;28;20211;-67
2022/07/18 04:24:07;;;;;;;;;;;18.20;78.60;;;;;;4996456;28;20094;-67
2022/07/18 04:26:35;;;;;;;;;;;18.30;79.10;;;;;;4995398;28;20213;-67
2022/07/18 04:29:03;;;;;;;;;;;18.30;79.60;;;;;;4997117;28;21025;-67
2022/07/18 04:31:32;;;;;;;;;;;18.40;79.00;;;;;;4997749;28;20199;-67
2022/07/18 04:34:00;;;;;;;;;;;18.40;79.90;;;;;;4997073;28;20379;-68
2022/07/18 04:36:29;;;;;;;;;;;18.40;80.00;;;;;;4996396;28;20203;-67
2022/07/18 04:38:57;;;;;;;;;;;18.50;79.90;;;;;;4995816;28;20203;-67
2022/07/18 04:41:24;;;;;;;;;;;18.50;78.20;;;;;;4997676;28;20212;-67
2022/07/18 04:43:53;;;;;;;;;;;18.50;80.60;;;;;;4996246;28;20299;-67
2022/07/18 04:46:20;;;;;;;;;;;18.50;81.20;;;;;;4994924;28;20836;-67
2022/07/18 04:48:49;;;;;;;;;;;18.50;80.50;;;;;;4996486;28;20209;-68
2022/07/18 04:51:17;;;;;;;;;;;18.50;79.90;;;;;;4996322;28;20199;-67
2022/07/18 04:53:45;;;;;;;;;;;18.60;79.20;;;;;;4995866;28;20203;-67
2022/07/18 04:56:13;;;;;;;;;;;18.60;81.40;;;;;;4995375;28;20261;-67
2022/07/18 04:58:40;;;;;;;;;;;18.70;81.70;;;;;;4996563;28;20206;-67
2022/07/18 05:01:08;;;;;;;;;;;18.70;82.40;;;;;;4995729;28;20242;-66
2022/07/18 05:03:36;;;;;;;;;;;18.70;82.00;;;;;;4995381;28;20258;-66
2022/07/18 05:06:05;;;;;;;;;;;18.80;83.60;;;;;;4994571;28;20206;-67
2022/07/18 05:08:33;;;;;;;;;;;18.90;80.80;;;;;;4994269;28;20211;-67
2022/07/18 05:11:01;;;;;;;;;;;18.90;84.00;;;;;;4995755;28;20192;-66
2022/07/18 05:13:29;;;;;;;;;;;19.00;82.80;;;;;;4995785;28;20214;-67
2022/07/18 05:15:58;;;;;;;;;;;19.10;82.00;;;;;;4995777;28;20228;-66
2022/07/18 05:18:26;;;;;;;;;;;19.20;82.70;;;;;;4995611;28;21416;-69
2022/07/18 05:20:53;;;;;;;;;;;19.20;81.00;;;;;;4996788;28;20251;-69
2022/07/18 05:23:24;;;;;;;;;;;19.30;82.90;;;;;;4995009;28;20281;-67
2022/07/18 05:25:51;;;;;;;;;;;19.40;83.80;;;;;;4994377;28;20309;-68
2022/07/18 05:28:19;;;;;;;;;;;19.50;81.90;;;;;;4995958;28;20234;-66
2022/07/18 05:30:47;;;;;;;;;;;19.50;83.50;;;;;;4995342;28;20207;-67
2022/07/18 05:33:15;;;;;;;;;;;19.70;83.10;;;;;;4994474;28;20203;-67
2022/07/18 05:35:42;;;;;;;;;;;19.70;83.80;;;;;;4993695;28;20813;-67
2022/07/18 05:38:10;;;;;;;;;;;19.90;84.30;;;;;;4997288;28;20199;-67
2022/07/18 05:40:39;;;;;;;;;;;20.00;82.70;;;;;;4994735;28;20213;-67
2022/07/18 05:43:07;;;;;;;;;;;20.00;82.30;;;;;;4995524;28;20203;-67
2022/07/18 05:45:35;;;;;;;;;;;20.10;83.40;;;;;;4993098;28;20224;-67
2022/07/18 05:48:03;;;;;;;;;;;20.20;83.20;;;;;;4996610;28;20206;-67
2022/07/18 05:50:31;;;;;;;;;;;20.30;81.50;;;;;;4996528;28;20210;-67
2022/07/18 05:52:59;;;;;;;;;;;20.40;83.40;;;;;;4994976;28;20257;-67
2022/07/18 05:55:27;;;;;;;;;;;20.50;81.50;;;;;;4993525;28;20136;-67
2022/07/18 05:57:56;;;;;;;;;;;20.70;82.30;;;;;;4996564;28;20805;-69
2022/07/18 06:00:24;;;;;;;;;;;20.70;81.20;;;;;;5009092;28;20684;-70
2022/07/18 06:02:51;;;;;;;;;;;20.80;80.00;;;;;;5005915;28;20207;-70
2022/07/18 06:05:19;;;;;;;;;;;20.90;80.50;;;;;;5011855;28;20204;-66
2022/07/18 06:07:51;;;;;;;;;;;21.00;80.70;;;;;;5010467;28;20603;-69
2022/07/18 06:10:19;;;;;;;;;;;21.10;79.80;;;;;;5012043;28;20672;-68
2022/07/18 06:12:47;;;;;;;;;;;21.30;80.40;;;;;;5012064;28;20204;-69
2022/07/18 06:15:16;;;;;;;;;;;21.30;79.30;;;;;;5011405;28;20202;-69
2022/07/18 06:17:44;;;;;;;;;;;21.30;79.30;;;;;;5008445;28;20199;-66
2022/07/18 06:20:12;;;;;;;;;;;21.40;80.00;;;;;;5012500;28;20206;-70
2022/07/18 06:22:40;;;;;;;;;;;21.50;79.30;;;;;;5012839;28;20643;-70
2022/07/18 06:25:08;;;;;;;;;;;21.60;79.90;;;;;;5012965;28;20195;-68
2022/07/18 06:27:36;;;;;;;;;;;21.60;80.90;;;;;;5012884;28;20635;-68
2022/07/18 06:30:04;;;;;;;;;;;21.60;78.80;;;;;;5012361;28;20686;-68
2022/07/18 06:32:33;;;;;;;;;;;21.70;78.60;;;;;;5012141;28;20622;-68
2022/07/18 06:35:01;;;;;;;;;;;21.80;79.60;;;;;;5010908;28;20249;-67
2022/07/18 06:37:29;;;;;;;;;;;21.90;79.60;;;;;;5008386;28;20568;-68
2022/07/18 06:39:57;;;;;;;;;;;22.10;78.50;;;;;;5010221;28;20202;-68
2022/07/18 06:42:30;;;;;;;;;;;22.30;77.30;;;;;;5012164;28;20264;-69
2022/07/18 06:45:10;;;;;;;;;;;22.40;76.30;;;;;;5012938;28;20207;-69
2022/07/18 06:47:42;;;;;;;;;;;22.60;77.20;;;;;;5012602;28;20195;-69
2022/07/18 06:50:11;;;;;;;;;;;22.70;75.40;;;;;;5012192;28;20203;-68
2022/07/18 06:52:39;;;;;;;;;;;22.80;73.50;;;;;;5012339;28;20199;-69
2022/07/18 06:55:08;;;;;;;;;;;22.80;74.20;;;;;;5012455;28;20203;-69
2022/07/18 06:57:36;;;;;;;;;;;22.90;73.10;;;;;;5011867;28;20753;-69
2022/07/18 07:00:04;;;;;;;;;;;23.00;73.10;;;;;;5012401;28;20214;-69
2022/07/18 07:02:32;;;;;;;;;;;23.10;74.70;;;;;;5012286;28;20578;-70
2022/07/18 07:05:01;;;;;;;;;;;23.20;74.40;;;;;;5012199;28;20195;-69
2022/07/18 07:07:30;;;;;;;;;;;23.40;73.90;;;;;;5007608;28;20195;-69
2022/07/18 07:09:57;;;;;;;;;;;23.60;73.10;;;;;;5012583;28;20278;-69
2022/07/18 07:12:25;;;;;;;;;;;23.60;72.50;;;;;;5005825;28;20269;-66
2022/07/18 07:14:53;;;;;;;;;;;23.70;70.30;;;;;;5006036;28;20204;-69
2022/07/18 07:17:21;;;;;;;;;;;23.80;71.50;;;;;;5012261;28;20203;-69
2022/07/18 07:19:50;;;;;;;;;;;24.00;70.50;;;;;;5011847;28;20575;-69
2022/07/18 07:22:19;;;;;;;;;;;24.10;71.30;;;;;;5005717;28;20207;-69
2022/07/18 07:24:47;;;;;;;;;;;24.10;69.20;;;;;;5006100;28;20661;-66
2022/07/18 07:27:17;;;;;;;;;;;24.20;71.00;;;;;;5005813;28;20222;-69
2022/07/18 07:29:45;;;;;;;;;;;24.30;68.10;;;;;;5011768;28;20683;-69
2022/07/18 07:32:13;;;;;;;;;;;24.40;68.40;;;;;;5012203;28;20195;-69
2022/07/18 07:34:40;;;;;;;;;;;24.50;69.90;;;;;;5011630;28;20215;-69
2022/07/18 07:37:08;;;;;;;;;;;24.70;70.00;;;;;;5011453;28;20180;-69
2022/07/18 07:39:37;;;;;;;;;;;24.90;67.50;;;;;;5011789;28;20686;-68
2022/07/18 07:42:05;;;;;;;;;;;24.80;67.20;;;;;;5005681;28;20199;-69
2022/07/18 07:44:33;;;;;;;;;;;24.90;67.20;;;;;;5011839;28;20195;-69
2022/07/18 07:47:00;;;;;;;;;;;24.90;67.60;;;;;;5011785;28;20203;-69
2022/07/18 07:49:29;;;;;;;;;;;25.10;66.80;;;;;;5011779;28;20203;-69
2022/07/18 07:51:56;;;;;;;;;;;25.10;66.00;;;;;;5011946;28;20195;-69
2022/07/18 07:54:24;;;;;;;;;;;25.30;68.00;;;;;;5011827;28;20203;-69
2022/07/18 07:56:53;;;;;;;;;;;25.30;67.60;;;;;;5005107;28;20257;-69
2022/07/18 07:59:21;;;;;;;;;;;25.40;66.40;;;;;;5005519;28;20210;-69
2022/07/18 08:01:49;;;;;;;;;;;25.40;66.10;;;;;;5011691;28;20664;-69
2022/07/18 08:04:17;;;;;;;;;;;25.50;68.50;;;;;;5011493;28;20253;-69
2022/07/18 08:06:44;;;;;;;;;;;25.50;67.70;;;;;;5011661;28;20671;-69
2022/07/18 08:09:13;;;;;;;;;;;25.70;67.70;;;;;;5005205;28;20252;-70
2022/07/18 08:11:41;;;;;;;;;;;25.90;66.10;;;;;;5005397;28;20199;-70
2022/07/18 08:14:10;;;;;;;;;;;26.00;67.00;;;;;;5005276;28;20746;-69
2022/07/18 08:16:38;;;;;;;;;;;26.10;66.70;;;;;;5005490;28;20617;-69
2022/07/18 08:19:06;;;;;;;;;;;26.10;64.90;;;;;;5011426;28;20195;-69
2022/07/18 08:21:33;;;;;;;;;;;26.40;66.10;;;;;;5011378;28;20199;-69
2022/07/18 08:24:01;;;;;;;;;;;26.50;64.10;;;;;;5011246;28;20265;-70
2022/07/18 08:26:33;;;;;;;;;;;26.50;64.10;;;;;;5006007;28;20202;-70
2022/07/18 08:29:01;;;;;;;;;;;26.70;64.50;;;;;;5011172;28;20195;-69
2022/07/18 08:31:31;;;;;;;;;;;26.80;64.40;;;;;;5011425;28;20257;-70
2022/07/18 08:33:59;;;;;;;;;;;27.10;64.30;;;;;;5011169;28;20203;-69
2022/07/18 08:36:27;;;;;;;;;;;27.40;64.70;;;;;;5010488;28;20273;-69
2022/07/18 08:38:55;;;;;;;;;;;27.60;64.10;;;;;;5011915;28;20205;-70
2022/07/18 08:41:23;;;;;;;;;;;27.80;64.80;;;;;;5014974;28;20290;-70
2022/07/18 08:43:51;;;;;;;;;;;27.90;64.60;;;;;;5014927;28;20199;-69
2022/07/18 08:46:20;;;;;;;;;;;28.30;64.40;;;;;;5014876;28;20199;-70
2022/07/18 08:48:51;;;;;;;;;;;28.40;64.20;;;;;;5014564;28;20715;-69
2022/07/18 08:51:22;;;;;;;;;;;28.60;64.80;;;;;;5014699;28;20294;-70
2022/07/18 08:53:51;;;;;;;;;;;28.70;62.40;;;;;;5014385;28;20223;-70
2022/07/18 08:56:19;;;;;;;;;;;29.00;63.60;;;;;;5034616;23;20187;-65
2022/07/18 08:58:47;;;;;;;;;;;29.20;64.30;;;;;;4977697;28;20219;-65
2022/07/18 09:01:15;;;;;;;;;;;29.40;63.50;;;;;;4975688;28;20251;-64
2022/07/18 09:03:43;;;;;;;;;;;29.50;63.00;;;;;;4975848;28;20192;-64
2022/07/18 09:06:13;;;;;;;;;;;29.70;64.20;;;;;;4975054;28;20200;-65
2022/07/18 09:08:41;;;;;;;;;;;29.80;61.00;;;;;;4990070;28;20196;-64
2022/07/18 09:11:10;;;;;;;;;;;29.90;62.10;;;;;;4994184;28;20625;-65
2022/07/18 09:13:58;;;;;;;;;;;30.20;60.80;;;;;;4994309;28;20635;-65
2022/07/18 09:16:27;;;;;;;;;;;30.60;61.50;;;;;;4994284;28;20258;-65
2022/07/18 09:18:55;;;;;;;;;;;30.80;62.10;;;;;;4994531;28;20194;-64
2022/07/18 09:21:24;;;;;;;;;;;30.90;59.50;;;;;;4990716;28;20207;-65
2022/07/18 09:23:59;;;;;;;;;;;31.00;60.40;;;;;;4994122;28;20265;-65
2022/07/18 09:26:39;;;;;;;;;;;31.30;59.00;;;;;;4994009;28;20203;-64
2022/07/18 09:29:06;;;;;;;;;;;31.40;61.70;;;;;;4994019;28;20218;-64
2022/07/18 09:31:54;;;;;;;;;;;31.70;57.60;;;;;;4994170;28;20700;-65
2022/07/18 09:34:32;;;;;;;;;;;32.20;58.10;;;;;;4989812;28;20222;-64
2022/07/18 09:37:02;;;;;;;;;;;32.20;59.10;;;;;;4982803;28;20198;-64
2022/07/18 09:39:29;;;;;;;;;;;31.90;56.70;;;;;;4992439;28;20241;-65
2022/07/18 09:42:12;;;;;;;;;;;31.90;58.10;;;;;;4993637;28;20194;-65
2022/07/18 09:44:40;;;;;;;;;;;31.90;59.00;;;;;;4993955;28;20190;-65
2022/07/18 09:47:07;;;;;;;;;;;32.20;56.80;;;;;;4993706;28;20193;-65
2022/07/18 09:49:36;;;;;;;;;;;32.50;56.40;;;;;;4993423;28;20214;-65
2022/07/18 09:52:06;;;;;;;;;;;32.50;56.30;;;;;;4992118;28;20265;-65
2022/07/18 09:54:38;;;;;;;;;;;32.30;55.30;;;;;;4993558;28;20178;-65
2022/07/18 09:57:06;;;;;;;;;;;32.50;56.80;;;;;;4993246;28;20579;-65
2022/07/18 09:59:35;;;;;;;;;;;32.70;55.10;;;;;;4993188;28;20587;-64
2022/07/18 10:02:03;;;;;;;;;;;33.00;54.60;;;;;;4993234;28;20186;-65
2022/07/18 10:04:31;;;;;;;;;;;33.30;54.80;;;;;;4988422;28;20232;-65
2022/07/18 10:06:59;;;;;;;;;;;33.80;54.60;;;;;;4977436;28;20726;-65
2022/07/18 10:09:28;;;;;;;;;;;34.30;55.90;;;;;;4974625;28;20171;-65
2022/07/18 10:11:56;;;;;;;;;;;34.30;54.00;;;;;;4974772;28;20167;-65
2022/07/18 10:14:30;;;;;;;;;;;34.50;54.90;;;;;;4974860;28;20441;-65
2022/07/18 10:16:58;;;;;;;;;;;34.60;54.60;;;;;;4974553;28;20197;-65
2022/07/18 10:19:26;;;;;;;;;;;34.50;54.60;;;;;;4974366;28;20245;-65
2022/07/18 10:21:56;;;;;;;;;;;34.30;56.00;;;;;;4973983;28;20201;-65
2022/07/18 10:24:25;;;;;;;;;;;34.20;54.00;;;;;;4974147;28;20190;-65
2022/07/18 10:27:07;;;;;;;;;;;34.40;53.30;;;;;;4974303;28;20261;-65
2022/07/18 10:29:37;;;;;;;;;;;34.40;53.70;;;;;;4973967;28;20661;-64
2022/07/18 10:32:07;;;;;;;;;;;34.80;52.70;;;;;;4973918;28;20579;-65
2022/07/18 10:34:35;;;;;;;;;;;35.20;53.60;;;;;;4974244;28;20189;-65
2022/07/18 10:37:10;;;;;;;;;;;35.40;54.80;;;;;;4975274;28;20237;-65
2022/07/18 10:39:39;;;;;;;;;;;35.50;54.10;;;;;;4992133;28;20194;-65
2022/07/18 10:42:14;;;;;;;;;;;35.40;54.00;;;;;;4992801;28;20230;-65
2022/07/18 10:44:43;;;;;;;;;;;35.50;51.80;;;;;;4967799;28;20194;-65
2022/07/18 10:47:12;;;;;;;;;;;35.30;52.80;;;;;;4967857;28;20584;-65
2022/07/18 10:49:59;;;;;;;;;;;35.10;52.70;;;;;;4968170;28;20208;-65
2022/07/18 10:52:47;;;;;;;;;;;35.10;53.00;;;;;;4972740;28;20290;-65
2022/07/18 10:55:28;;;;;;;;;;;35.30;52.60;;;;;;4985162;28;20580;-65
2022/07/18 10:58:13;;;;;;;;;;;34.30;51.80;;;;;;4992364;28;20291;-65
2022/07/18 11:00:43;;;;;;;;;;;34.30;52.90;;;;;;4988677;28;20835;-65
2022/07/18 11:03:11;;;;;;;;;;;34.50;53.60;;;;;;4991745;28;20190;-65
2022/07/18 11:05:42;;;;;;;;;;;34.50;54.20;;;;;;4981002;28;20608;-65
2022/07/18 11:08:18;;;;;;;;;;;34.80;54.50;;;;;;4987155;28;20616;-65
2022/07/18 11:11:05;;;;;;;;;;;35.00;52.10;;;;;;4985402;28;20306;-65
2022/07/18 11:13:35;;;;;;;;;;;35.30;52.20;;;;;;4973336;28;25159;-65
2022/07/18 11:16:06;;;;;;;;;;;35.40;52.50;;;;;;4973950;28;20176;-65
2022/07/18 11:18:54;;;;;;;;;;;35.60;51.80;;;;;;4973722;28;20229;-65
2022/07/18 11:21:23;;;;;;;;;;;35.90;51.80;;;;;;4973429;28;20216;-65
2022/07/18 11:23:52;;;;;;;;;;;36.40;53.20;;;;;;4973194;28;20256;-65
2022/07/18 11:26:21;;;;;;;;;;;36.30;52.70;;;;;;4973601;28;20657;-65
2022/07/18 11:28:57;;;;;;;;;;;36.70;53.20;;;;;;4973835;28;20681;-65
2022/07/18 11:31:27;;;;;;;;;;;36.70;50.70;;;;;;4973503;28;20629;-65
2022/07/18 11:33:55;;;;;;;;;;;37.00;51.50;;;;;;4973289;28;20242;-65
2022/07/18 11:36:28;;;;;;;;;;;36.80;50.70;;;;;;4984245;28;20707;-65
2022/07/18 11:38:57;;;;;;;;;;;37.00;50.90;;;;;;4986187;28;20238;-65
2022/07/18 11:41:25;;;;;;;;;;;37.20;50.80;;;;;;4984889;28;20220;-65
2022/07/18 11:43:54;;;;;;;;;;;37.40;50.50;;;;;;4989853;28;20238;-65
2022/07/18 11:46:22;;;;;;;;;;;37.50;50.00;;;;;;4991871;28;20214;-65
2022/07/18 11:48:58;;;;;;;;;;;37.60;49.60;;;;;;4992097;28;20201;-65
2022/07/18 11:51:26;;;;;;;;;;;37.90;50.70;;;;;;4991643;28;20578;-65
2022/07/18 11:53:54;;;;;;;;;;;38.10;49.20;;;;;;4991772;28;20206;-65
2022/07/18 11:56:22;;;;;;;;;;;37.70;49.00;;;;;;4975915;28;20248;-65
2022/07/18 11:58:51;;;;;;;;;;;37.40;50.00;;;;;;4973348;28;20241;-65
2022/07/18 12:01:19;;;;;;;;;;;37.60;49.80;;;;;;4973069;28;20194;-65
2022/07/18 12:03:48;;;;;;;;;;;37.70;49.60;;;;;;4972825;28;20226;-65
2022/07/18 12:06:18;;;;;;;;;;;37.70;49.50;;;;;;4976019;28;20189;-65
2022/07/18 12:08:47;;;;;;;;;;;37.70;48.80;;;;;;4989018;28;20209;-65
2022/07/18 12:11:17;;;;;;;;;;;37.80;48.30;;;;;;4986266;28;20612;-65
2022/07/18 12:13:57;;;;;;;;;;;37.50;48.70;;;;;;4992505;28;20205;-65
2022/07/18 12:16:35;;;;;;;;;;;37.60;50.20;;;;;;4995573;28;20711;-66
2022/07/18 12:19:07;;;;;;;;;;;38.00;48.90;;;;;;4995417;28;20192;-65
2022/07/18 12:21:51;;;;;;;;;;;38.40;48.70;;;;;;4995347;28;20585;-65
2022/07/18 12:24:30;;;;;;;;;;;38.90;49.60;;;;;;4995274;28;20182;-65
2022/07/18 12:27:13;;;;;;;;;;;39.10;48.90;;;;;;4991040;28;20235;-65
2022/07/18 12:29:54;;;;;;;;;;;39.50;47.80;;;;;;4995221;28;20195;-64
2022/07/18 12:32:23;;;;;;;;;;;39.50;47.80;;;;;;4994885;28;20238;-65
2022/07/18 12:34:55;;;;;;;;;;;39.70;48.40;;;;;;4986768;28;20200;-65
2022/07/18 12:37:29;;;;;;;;;;;39.70;48.40;;;;;;4978110;28;20225;-65
2022/07/18 12:39:57;;;;;;;;;;;39.50;47.60;;;;;;4974800;28;20200;-66
2022/07/18 12:42:45;;;;;;;;;;;39.40;47.20;;;;;;4987870;28;20260;-65
2022/07/18 12:45:14;;;;;;;;;;;39.50;49.00;;;;;;4995028;28;20185;-65
2022/07/18 12:47:41;;;;;;;;;;;39.60;48.20;;;;;;4994471;28;20198;-65
2022/07/18 12:50:09;;;;;;;;;;;39.90;48.10;;;;;;4990151;28;20272;-65
2022/07/18 12:52:43;;;;;;;;;;;39.60;47.70;;;;;;4976316;28;20199;-65
2022/07/18 12:55:11;;;;;;;;;;;38.90;47.40;;;;;;4976178;28;20689;-65
2022/07/18 12:57:38;;;;;;;;;;;38.70;48.10;;;;;;4975236;28;20237;-65
2022/07/18 13:00:07;;;;;;;;;;;38.50;48.10;;;;;;4975862;28;20273;-65
2022/07/18 13:02:35;;;;;;;;;;;38.80;48.30;;;;;;4975898;28;20541;-65
2022/07/18 13:05:03;;;;;;;;;;;38.60;47.30;;;;;;4977892;28;20178;-65
2022/07/18 13:07:31;;;;;;;;;;;38.00;47.50;;;;;;4980586;28;20201;-65
2022/07/18 13:10:09;;;;;;;;;;;38.30;47.80;;;;;;4975484;28;20265;-65
2022/07/18 13:12:37;;;;;;;;;;;38.70;46.70;;;;;;4975601;28;20233;-65
2022/07/18 13:15:05;;;;;;;;;;;38.90;47.60;;;;;;4975850;28;20187;-65
2022/07/18 13:17:32;;;;;;;;;;;38.70;47.10;;;;;;4975622;28;20620;-65
2022/07/18 13:20:00;;;;;;;;;;;39.10;47.50;;;;;;4975220;28;20192;-65
2022/07/18 13:22:29;;;;;;;;;;;39.60;47.40;;;;;;4975379;28;20793;-66
2022/07/18 13:24:58;;;;;;;;;;;39.70;46.10;;;;;;4974860;28;20179;-64
2022/07/18 13:27:27;;;;;;;;;;;40.00;47.00;;;;;;4991581;28;20677;-65
2022/07/18 13:29:55;;;;;;;;;;;40.00;47.40;;;;;;4994072;28;20274;-65
2022/07/18 13:32:23;;;;;;;;;;;40.30;47.40;;;;;;4993391;28;20878;-65
2022/07/18 13:34:50;;;;;;;;;;;40.20;46.40;;;;;;4986195;28;20216;-65
2022/07/18 13:37:18;;;;;;;;;;;40.30;47.50;;;;;;4986366;28;20641;-66
2022/07/18 13:39:46;;;;;;;;;;;40.50;46.40;;;;;;4994052;28;20617;-66
2022/07/18 13:42:14;;;;;;;;;;;40.70;46.40;;;;;;4975048;28;20185;-65
2022/07/18 13:44:44;;;;;;;;;;;40.80;46.70;;;;;;4975339;28;20232;-65
2022/07/18 13:47:12;;;;;;;;;;;40.50;46.10;;;;;;4975073;28;20232;-66
2022/07/18 13:49:40;;;;;;;;;;;40.50;45.80;;;;;;4975184;28;20216;-65
2022/07/18 13:52:08;;;;;;;;;;;40.80;46.00;;;;;;4974491;28;20628;-66
2022/07/18 13:54:37;;;;;;;;;;;41.20;45.40;;;;;;4975105;28;20258;-65
2022/07/18 13:57:05;;;;;;;;;;;41.60;45.50;;;;;;4974298;28;20236;-65
2022/07/18 13:59:33;;;;;;;;;;;41.90;45.40;;;;;;4974619;28;20193;-66
2022/07/18 14:02:02;;;;;;;;;;;42.10;44.80;;;;;;4974476;28;20226;-66
2022/07/18 14:04:30;;;;;;;;;;;41.90;45.40;;;;;;4974482;28;20701;-65
2022/07/18 14:07:18;;;;;;;;;;;42.00;45.20;;;;;;4968273;28;20236;-66
2022/07/18 14:09:46;;;;;;;;;;;42.30;45.70;;;;;;4993527;28;20631;-65
2022/07/18 14:12:21;;;;;;;;;;;42.50;45.40;;;;;;4993008;28;20275;-65
2022/07/18 14:14:49;;;;;;;;;;;42.60;45.30;;;;;;4992967;28;20301;-66
2022/07/18 14:17:18;;;;;;;;;;;42.60;44.70;;;;;;4974443;28;20207;-65
2022/07/18 14:19:46;;;;;;;;;;;42.60;44.70;;;;;;4974560;28;20701;-65
2022/07/18 14:22:13;;;;;;;;;;;42.50;46.00;;;;;;4974085;28;20227;-65
2022/07/18 14:24:41;;;;;;;;;;;42.10;44.30;;;;;;4980938;28;20201;-65
2022/07/18 14:27:09;;;;;;;;;;;42.10;45.00;;;;;;4992677;28;20631;-65
2022/07/18 14:29:37;;;;;;;;;;;42.00;44.40;;;;;;4993009;28;20241;-65
2022/07/18 14:32:05;;;;;;;;;;;41.80;44.60;;;;;;4992473;28;20197;-65